Time;durP1;ratioP1;P1;durP2;ratioP2;P2;SDS_P1;SDS_P2;PMS_P1;PMS_P2;Temp;Humidity;BMP_temperature;BMP_pressure;BME280_temperature;BME280_humidity;BME280_pressure;Samples;Min_cycle;Max_cycle;Signal;HPM_P1;HPM_P2
2021/03/11 00:01:50;;;;;;;34.15;18.92;;;7.30;99.90;;;;;;5112169;28;20110;-73
2021/03/11 00:04:16;;;;;;;28.60;17.45;;;7.30;99.90;;;;;;5112013;28;20451;-73
2021/03/11 00:06:42;;;;;;;29.05;17.50;;;7.30;99.90;;;;;;5097276;28;20110;-73
2021/03/11 00:09:08;;;;;;;30.45;18.90;;;7.40;99.90;;;;;;5112084;28;20035;-73
2021/03/11 00:11:33;;;;;;;28.83;18.90;;;7.40;99.90;;;;;;5111522;28;20027;-73
2021/03/11 00:13:59;;;;;;;28.95;18.15;;;7.40;99.90;;;;;;5111850;28;20023;-73
2021/03/11 00:16:24;;;;;;;28.13;18.15;;;7.40;99.90;;;;;;5112217;28;20012;-73
2021/03/11 00:18:50;;;;;;;29.05;19.02;;;7.40;99.90;;;;;;5111159;28;20026;-74
2021/03/11 00:21:16;;;;;;;23.88;16.92;;;7.50;99.90;;;;;;5112035;28;20028;-73
2021/03/11 00:23:41;;;;;;;26.40;17.60;;;7.50;99.90;;;;;;5112044;28;20039;-73
2021/03/11 00:26:07;;;;;;;22.48;17.15;;;7.50;99.90;;;;;;5111324;28;20027;-73
2021/03/11 00:28:32;;;;;;;30.45;18.08;;;7.60;99.90;;;;;;5112006;28;20028;-72
2021/03/11 00:30:58;;;;;;;26.20;16.48;;;7.60;99.90;;;;;;5111773;28;20084;-73
2021/03/11 00:33:24;;;;;;;21.70;16.27;;;7.60;99.90;;;;;;5111168;28;20114;-72
2021/03/11 00:35:50;;;;;;;25.00;16.75;;;7.60;99.90;;;;;;5111555;28;20039;-72
2021/03/11 00:38:16;;;;;;;25.67;17.80;;;7.70;99.90;;;;;;5111913;28;20483;-73
2021/03/11 00:40:41;;;;;;;29.42;18.63;;;7.70;99.90;;;;;;5111317;28;20137;-72
2021/03/11 00:43:09;;;;;;;22.38;15.65;;;7.70;99.90;;;;;;5103480;28;20047;-72
2021/03/11 00:45:35;;;;;;;27.30;18.00;;;7.70;99.90;;;;;;5106004;28;20036;-72
2021/03/11 00:48:02;;;;;;;24.92;17.83;;;7.80;99.90;;;;;;5097932;28;20368;-72
2021/03/11 00:50:28;;;;;;;28.08;17.55;;;7.80;99.90;;;;;;5102194;28;20417;-72
2021/03/11 00:52:53;;;;;;;26.02;17.30;;;7.80;99.90;;;;;;5099317;28;20111;-74
2021/03/11 00:55:20;;;;;;;22.80;17.88;;;7.80;99.90;;;;;;5100949;28;20371;-72
2021/03/11 00:57:45;;;;;;;25.05;17.92;;;7.90;99.90;;;;;;5103495;28;20104;-72
2021/03/11 01:00:16;;;;;;;28.00;18.90;;;7.80;99.90;;;;;;5101544;28;20092;-72
2021/03/11 01:02:42;;;;;;;29.95;20.52;;;7.90;99.90;;;;;;5102113;28;20038;-72
2021/03/11 01:05:08;;;;;;;33.28;20.90;;;7.80;99.90;;;;;;5104029;28;20475;-73
2021/03/11 01:07:34;;;;;;;28.30;20.15;;;7.80;99.90;;;;;;5108426;28;20047;-73
2021/03/11 01:09:59;;;;;;;29.77;19.05;;;7.80;99.90;;;;;;5103861;28;20036;-73
2021/03/11 01:12:25;;;;;;;30.17;19.13;;;7.80;99.90;;;;;;5098294;28;20015;-73
2021/03/11 01:14:50;;;;;;;30.75;20.77;;;7.80;99.90;;;;;;5111046;28;20023;-73
2021/03/11 01:17:16;;;;;;;33.30;21.60;;;7.80;99.90;;;;;;5102135;28;20056;-72
2021/03/11 01:19:41;;;;;;;30.25;20.95;;;7.80;99.90;;;;;;5106018;28;20081;-72
2021/03/11 01:22:07;;;;;;;33.28;21.95;;;7.90;99.90;;;;;;5093637;28;20447;-73
2021/03/11 01:24:33;;;;;;;33.10;21.25;;;7.80;99.90;;;;;;5105983;28;20028;-72
2021/03/11 01:26:58;;;;;;;30.42;20.88;;;7.80;99.90;;;;;;5101584;28;20024;-73
2021/03/11 01:29:24;;;;;;;26.02;17.95;;;7.80;99.90;;;;;;5103255;28;20034;-72
2021/03/11 01:31:50;;;;;;;29.67;21.67;;;7.90;99.90;;;;;;5103557;28;20468;-74
2021/03/11 01:34:15;;;;;;;30.63;21.25;;;7.90;99.90;;;;;;5101919;28;20506;-73
2021/03/11 01:36:43;;;;;;;34.90;21.15;;;7.90;99.90;;;;;;5105415;28;20061;-73
2021/03/11 01:39:08;;;;;;;32.03;21.45;;;7.90;99.90;;;;;;5100571;28;20028;-72
2021/03/11 01:41:34;;;;;;;31.98;21.90;;;7.90;99.90;;;;;;5108595;28;20018;-74
2021/03/11 01:44:00;;;;;;;31.30;20.20;;;7.90;99.90;;;;;;5110206;28;20042;-73
2021/03/11 01:46:26;;;;;;;31.17;20.02;;;7.90;99.90;;;;;;5094408;28;20044;-72
2021/03/11 01:48:52;;;;;;;31.73;21.95;;;7.90;99.90;;;;;;5093863;28;20545;-73
2021/03/11 01:51:19;;;;;;;30.45;21.23;;;7.90;99.90;;;;;;5093483;28;20016;-72
2021/03/11 01:53:48;;;;;;;31.10;20.30;;;8.00;99.90;;;;;;5094333;28;20024;-72
2021/03/11 01:56:14;;;;;;;29.23;20.60;;;7.90;99.90;;;;;;5094165;28;20146;-72
2021/03/11 01:58:40;;;;;;;30.88;21.52;;;7.90;99.90;;;;;;5093809;28;20012;-72
2021/03/11 02:01:05;;;;;;;27.13;18.63;;;8.00;99.90;;;;;;5093772;28;20372;-72
2021/03/11 02:03:31;;;;;;;29.90;20.73;;;8.00;99.90;;;;;;5094262;28;20048;-72
2021/03/11 02:05:57;;;;;;;33.17;22.52;;;8.00;99.90;;;;;;5093185;28;20023;-72
2021/03/11 02:08:22;;;;;;;33.67;23.08;;;8.00;99.90;;;;;;5093697;28;20107;-72
2021/03/11 02:10:48;;;;;;;31.55;21.35;;;8.00;99.90;;;;;;5095453;28;20060;-72
2021/03/11 02:13:32;;;;;;;30.15;20.85;;;8.00;99.90;;;;;;5093727;28;20016;-72
2021/03/11 02:16:09;;;;;;;30.80;20.92;;;8.10;99.90;;;;;;5096338;28;20039;-73
2021/03/11 02:18:59;;;;;;;34.42;22.08;;;8.10;99.90;;;;;;5094625;28;20081;-75
2021/03/11 02:21:30;;;;;;;29.25;21.75;;;8.10;99.90;;;;;;5068249;28;20123;-72
2021/03/11 02:24:31;;;;;;;28.80;21.08;;;8.20;99.90;;;;;;5113673;28;20039;-73
2021/03/11 02:27:14;;;;;;;34.63;20.67;;;8.10;99.90;;;;;;5108174;28;20020;-72
2021/03/11 02:29:41;;;;;;;27.45;20.33;;;8.20;99.90;;;;;;5093725;28;20035;-72
2021/03/11 02:32:11;;;;;;;29.23;20.17;;;8.30;99.90;;;;;;5097790;28;20073;-72
2021/03/11 02:34:44;;;;;;;27.77;19.70;;;8.30;99.90;;;;;;5113810;28;20024;-74
2021/03/11 02:37:14;;;;;;;27.55;20.17;;;8.30;99.90;;;;;;5113034;28;20026;-72
2021/03/11 02:39:44;;;;;;;27.45;20.73;;;8.30;99.90;;;;;;5113276;28;20032;-72
2021/03/11 02:42:11;;;;;;;27.83;19.77;;;8.40;99.90;;;;;;5113037;28;20399;-72
2021/03/11 02:44:38;;;;;;;27.05;19.13;;;8.40;99.90;;;;;;5093210;28;20035;-74
2021/03/11 02:47:05;;;;;;;28.13;19.88;;;8.40;99.90;;;;;;5092067;28;20100;-72
2021/03/11 02:49:31;;;;;;;28.13;21.42;;;8.40;99.90;;;;;;5093162;28;20133;-72
2021/03/11 02:51:57;;;;;;;31.52;20.35;;;8.50;99.90;;;;;;5093247;28;20371;-73
2021/03/11 02:54:23;;;;;;;27.60;18.52;;;8.50;99.90;;;;;;5094446;28;20028;-72
2021/03/11 02:56:51;;;;;;;28.08;19.60;;;8.50;99.90;;;;;;5102464;28;20527;-72
2021/03/11 02:59:18;;;;;;;29.30;19.77;;;8.60;99.90;;;;;;5113147;28;20027;-72
2021/03/11 03:01:47;;;;;;;26.33;18.77;;;8.60;99.90;;;;;;5112858;28;20032;-73
2021/03/11 03:04:13;;;;;;;29.98;17.80;;;8.60;99.90;;;;;;5113899;28;20543;-74
2021/03/11 03:06:40;;;;;;;30.63;19.15;;;8.60;99.90;;;;;;5113894;28;20020;-73
2021/03/11 03:09:10;;;;;;;26.60;19.73;;;8.70;99.90;;;;;;5116711;28;20135;-73
2021/03/11 03:11:37;;;;;;;22.95;17.00;;;8.70;99.90;;;;;;5112823;28;20467;-73
2021/03/11 03:14:06;;;;;;;21.50;17.55;;;8.60;99.90;;;;;;5112721;28;20042;-73
2021/03/11 03:16:33;;;;;;;22.05;17.05;;;8.70;99.90;;;;;;5112297;28;20028;-73
2021/03/11 03:19:00;;;;;;;21.35;14.88;;;8.60;99.90;;;;;;5112789;28;20031;-72
2021/03/11 03:21:25;;;;;;;24.60;17.73;;;8.70;99.90;;;;;;5111724;28;20077;-73
2021/03/11 03:23:53;;;;;;;24.92;18.73;;;8.70;99.90;;;;;;5112498;28;20444;-72
2021/03/11 03:26:18;;;;;;;26.85;17.90;;;8.80;99.90;;;;;;5112733;28;20027;-73
2021/03/11 03:28:44;;;;;;;22.75;17.65;;;8.80;99.90;;;;;;5111731;28;20103;-72
2021/03/11 03:31:10;;;;;;;25.80;18.25;;;8.90;99.90;;;;;;5112116;28;20026;-73
2021/03/11 03:33:36;;;;;;;26.55;17.08;;;8.80;99.90;;;;;;5112621;28;20023;-72
2021/03/11 03:36:02;;;;;;;21.50;16.50;;;8.80;99.90;;;;;;5111787;28;20016;-72
2021/03/11 03:38:30;;;;;;;23.48;16.08;;;8.90;99.90;;;;;;5112449;28;20058;-73
2021/03/11 03:41:02;;;;;;;19.90;15.40;;;8.90;99.90;;;;;;5112251;28;20024;-73
2021/03/11 03:43:33;;;;;;;19.08;14.63;;;9.00;99.90;;;;;;5107680;28;20030;-72
2021/03/11 03:46:15;;;;;;;19.40;14.55;;;9.10;99.90;;;;;;5094341;28;20024;-72
2021/03/11 03:48:45;;;;;;;22.42;14.85;;;9.00;99.90;;;;;;5092111;28;20027;-72
2021/03/11 03:51:11;;;;;;;17.73;13.05;;;9.10;99.90;;;;;;5095222;28;20028;-72
2021/03/11 03:53:48;;;;;;;17.42;12.95;;;9.10;99.90;;;;;;5112368;28;20027;-72
2021/03/11 03:56:28;;;;;;;13.18;9.68;;;9.20;99.90;;;;;;5103885;28;20012;-72
2021/03/11 03:58:57;;;;;;;16.60;12.07;;;9.20;99.90;;;;;;5091194;28;20028;-71
2021/03/11 04:01:29;;;;;;;14.27;11.40;;;9.20;99.90;;;;;;5092072;28;20047;-73
2021/03/11 04:03:59;;;;;;;17.40;13.00;;;9.30;99.90;;;;;;5090618;28;20171;-74
2021/03/11 04:06:25;;;;;;;14.07;10.70;;;9.30;99.90;;;;;;5104605;28;20444;-72
2021/03/11 04:08:51;;;;;;;14.07;10.80;;;9.40;99.90;;;;;;5111877;28;20366;-72
2021/03/11 04:11:18;;;;;;;14.43;11.10;;;9.40;99.90;;;;;;5111777;28;20053;-73
2021/03/11 04:13:45;;;;;;;13.57;11.32;;;9.40;99.90;;;;;;5109793;28;20023;-72
2021/03/11 04:16:12;;;;;;;15.18;10.90;;;9.40;99.90;;;;;;5091592;28;20020;-74
2021/03/11 04:18:39;;;;;;;14.82;11.25;;;9.50;99.90;;;;;;5090963;28;20020;-73
2021/03/11 04:21:06;;;;;;;12.90;10.48;;;9.40;99.90;;;;;;5091784;28;20032;-73
2021/03/11 04:23:33;;;;;;;15.88;10.43;;;9.50;99.90;;;;;;5091902;28;20173;-72
2021/03/11 04:25:58;;;;;;;16.63;10.98;;;9.50;99.90;;;;;;5090866;28;20377;-74
2021/03/11 04:28:25;;;;;;;15.55;10.13;;;9.50;99.90;;;;;;5091775;28;20072;-73
2021/03/11 04:30:51;;;;;;;15.27;10.20;;;9.50;99.90;;;;;;5105567;28;20493;-73
2021/03/11 04:33:16;;;;;;;14.10;10.32;;;9.60;99.90;;;;;;5094095;28;20107;-73
2021/03/11 04:35:42;;;;;;;14.25;10.35;;;9.60;99.90;;;;;;5095627;28;20024;-73
2021/03/11 04:38:08;;;;;;;12.27;9.32;;;9.60;99.90;;;;;;5095001;28;20088;-73
2021/03/11 04:40:34;;;;;;;11.98;8.48;;;9.60;99.90;;;;;;5095039;28;20126;-73
2021/03/11 04:43:00;;;;;;;17.55;8.85;;;9.70;99.90;;;;;;5095171;28;20032;-74
2021/03/11 04:45:26;;;;;;;12.10;8.77;;;9.70;99.90;;;;;;5095530;28;20031;-73
2021/03/11 04:47:52;;;;;;;10.93;8.82;;;9.70;99.90;;;;;;5111486;28;20459;-73
2021/03/11 04:50:18;;;;;;;15.00;8.85;;;9.70;99.90;;;;;;5116205;28;20411;-73
2021/03/11 04:52:47;;;;;;;12.70;9.23;;;9.70;99.90;;;;;;5119251;28;20023;-73
2021/03/11 04:55:13;;;;;;;22.55;9.65;;;9.80;99.90;;;;;;5117301;28;20128;-73
2021/03/11 04:57:39;;;;;;;14.75;9.25;;;9.80;99.90;;;;;;5115921;28;20395;-73
2021/03/11 05:00:06;;;;;;;15.95;10.18;;;9.70;99.90;;;;;;5115279;28;20096;-73
2021/03/11 05:02:34;;;;;;;13.77;9.80;;;9.70;99.90;;;;;;5115808;28;20019;-73
2021/03/11 05:05:02;;;;;;;12.73;9.05;;;9.70;99.90;;;;;;5115310;28;20047;-72
2021/03/11 05:07:28;;;;;;;16.25;9.23;;;9.70;99.90;;;;;;5115859;28;20055;-73
2021/03/11 05:09:53;;;;;;;12.40;8.35;;;9.80;99.90;;;;;;5116288;28;20058;-72
2021/03/11 05:12:19;;;;;;;10.70;8.00;;;9.80;99.90;;;;;;5115680;28;20023;-73
2021/03/11 05:14:44;;;;;;;11.93;8.35;;;9.80;99.90;;;;;;5114784;28;20043;-73
2021/03/11 05:17:10;;;;;;;14.95;8.82;;;9.90;99.90;;;;;;5110368;28;20022;-73
2021/03/11 05:19:35;;;;;;;16.08;8.32;;;9.90;99.90;;;;;;5094881;28;20110;-73
2021/03/11 05:22:01;;;;;;;9.85;7.45;;;9.90;99.90;;;;;;5093879;28;20024;-73
2021/03/11 05:24:27;;;;;;;12.93;7.78;;;9.90;99.90;;;;;;5103701;28;20077;-73
2021/03/11 05:26:52;;;;;;;14.90;8.40;;;9.90;99.90;;;;;;5114060;28;20024;-73
2021/03/11 05:29:18;;;;;;;16.80;8.57;;;9.90;99.90;;;;;;5093963;28;20116;-73
2021/03/11 05:31:44;;;;;;;8.13;7.28;;;9.90;99.90;;;;;;5093272;28;20067;-73
2021/03/11 05:34:09;;;;;;;11.07;8.38;;;9.90;99.90;;;;;;5099190;28;20115;-73
2021/03/11 05:36:35;;;;;;;14.90;8.18;;;9.90;99.90;;;;;;5114320;28;20067;-73
2021/03/11 05:39:03;;;;;;;10.18;8.18;;;9.80;99.90;;;;;;5114586;28;20030;-72
2021/03/11 05:41:33;;;;;;;13.50;8.73;;;9.80;99.90;;;;;;5114954;28;20028;-73
2021/03/11 05:43:59;;;;;;;11.57;8.27;;;9.80;99.90;;;;;;5113224;27;20036;-74
2021/03/11 05:46:26;;;;;;;11.90;8.07;;;9.80;99.90;;;;;;5115093;28;20024;-73
2021/03/11 05:48:54;;;;;;;10.65;7.05;;;9.80;99.90;;;;;;5114632;28;20313;-72
2021/03/11 05:51:19;;;;;;;15.02;7.05;;;9.90;99.90;;;;;;5113854;28;20023;-72
2021/03/11 05:53:45;;;;;;;13.63;7.82;;;9.90;99.90;;;;;;5114655;28;20020;-73
2021/03/11 05:56:11;;;;;;;12.02;8.20;;;9.90;99.90;;;;;;5113424;28;20019;-72
2021/03/11 05:58:36;;;;;;;10.00;6.50;;;9.90;99.90;;;;;;5114380;28;20016;-72
2021/03/11 06:01:02;;;;;;;10.57;6.15;;;9.90;99.90;;;;;;5114069;28;20034;-72
2021/03/11 06:03:32;;;;;;;8.65;6.28;;;10.00;99.90;;;;;;5109411;28;20036;-74
2021/03/11 06:05:59;;;;;;;12.88;6.20;;;10.00;99.90;;;;;;5093883;28;20105;-74
2021/03/11 06:08:26;;;;;;;9.68;5.95;;;10.10;99.90;;;;;;5111020;28;20020;-74
2021/03/11 06:10:56;;;;;;;10.43;5.85;;;10.20;99.90;;;;;;5113332;28;20034;-73
2021/03/11 06:13:25;;;;;;;10.65;5.82;;;10.20;99.90;;;;;;5113958;28;20064;-72
2021/03/11 06:16:08;;;;;;;13.52;6.07;;;10.30;99.90;;;;;;5114069;28;20032;-73
2021/03/11 06:18:35;;;;;;;8.23;5.18;;;10.30;99.90;;;;;;5113396;28;20371;-72
2021/03/11 06:21:01;;;;;;;8.90;6.00;;;10.30;99.90;;;;;;5113783;28;20127;-74
2021/03/11 06:23:29;;;;;;;10.85;5.25;;;10.30;99.90;;;;;;5114034;28;20019;-74
2021/03/11 06:25:56;;;;;;;12.23;4.47;;;10.30;99.90;;;;;;5113642;28;20024;-73
2021/03/11 06:28:44;;;;;;;14.55;4.07;;;10.40;99.90;;;;;;5116489;28;20020;-74
2021/03/11 06:31:23;;;;;;;9.25;5.28;;;10.40;99.90;;;;;;5096505;28;20423;-72
2021/03/11 06:33:49;;;;;;;10.40;3.72;;;10.40;99.90;;;;;;5095865;28;20120;-73
2021/03/11 06:36:17;;;;;;;9.82;4.45;;;10.40;99.90;;;;;;5113407;28;20110;-73
2021/03/11 06:38:43;;;;;;;8.77;4.60;;;10.40;99.90;;;;;;5110290;28;20030;-73
2021/03/11 06:41:09;;;;;;;6.50;3.83;;;10.40;99.90;;;;;;5112685;28;20023;-72
2021/03/11 06:43:49;;;;;;;7.18;4.47;;;10.40;99.90;;;;;;5108812;28;20043;-73
2021/03/11 06:46:15;;;;;;;7.72;3.75;;;10.50;99.90;;;;;;5103089;28;20016;-73
2021/03/11 06:48:40;;;;;;;10.57;4.60;;;10.50;99.90;;;;;;5107506;28;20061;-74
2021/03/11 06:51:16;;;;;;;11.13;4.57;;;10.50;99.90;;;;;;5109741;28;20038;-74
2021/03/11 06:53:57;;;;;;;5.53;3.45;;;10.50;99.90;;;;;;5113541;28;20038;-73
2021/03/11 06:56:23;;;;;;;8.30;3.63;;;10.50;99.90;;;;;;5107526;28;20107;-74
2021/03/11 06:59:15;;;;;;;9.82;4.40;;;10.50;99.90;;;;;;5109691;28;20040;-72
2021/03/11 07:01:52;;;;;;;13.18;3.92;;;10.50;99.90;;;;;;5108229;28;20074;-74
2021/03/11 07:04:24;;;;;;;10.93;3.88;;;10.50;99.90;;;;;;5108998;27;20093;-73
2021/03/11 07:06:49;;;;;;;19.02;4.15;;;10.60;99.90;;;;;;5108870;28;20019;-72
2021/03/11 07:09:15;;;;;;;25.25;5.50;;;10.60;99.90;;;;;;5112896;28;20028;-73
2021/03/11 07:11:54;;;;;;;14.05;4.05;;;10.60;99.90;;;;;;5110549;28;20020;-72
2021/03/11 07:14:27;;;;;;;16.05;3.92;;;10.60;99.90;;;;;;5109825;28;20379;-73
2021/03/11 07:16:53;;;;;;;24.42;4.35;;;10.60;99.90;;;;;;5095432;28;20092;-74
2021/03/11 07:19:19;;;;;;;23.45;5.00;;;10.60;99.90;;;;;;5102415;28;20095;-75
2021/03/11 07:21:53;;;;;;;20.67;3.55;;;10.60;99.90;;;;;;5094852;28;20024;-74
2021/03/11 07:24:32;;;;;;;19.48;4.10;;;10.60;99.90;;;;;;5097771;28;20450;-74
2021/03/11 07:26:58;;;;;;;33.90;5.88;;;10.60;99.90;;;;;;5100014;28;20054;-74
2021/03/11 07:29:24;;;;;;;32.45;5.80;;;10.70;99.90;;;;;;5096723;28;20467;-74
2021/03/11 07:31:57;;;;;;;23.23;4.45;;;10.70;99.90;;;;;;5092041;28;20032;-72
2021/03/11 07:34:28;;;;;;;24.90;4.57;;;10.70;99.90;;;;;;5099946;28;20019;-73
2021/03/11 07:36:58;;;;;;;29.50;4.80;;;10.70;99.90;;;;;;5090515;28;20029;-73
2021/03/11 07:39:33;;;;;;;25.13;4.70;;;10.80;99.90;;;;;;5096944;28;20019;-77
2021/03/11 07:41:59;;;;;;;26.20;4.32;;;10.90;99.90;;;;;;5096929;28;20517;-76
2021/03/11 07:44:26;;;;;;;29.30;4.78;;;10.80;99.90;;;;;;5105365;28;20137;-77
2021/03/11 07:46:52;;;;;;;27.50;4.07;;;10.90;99.90;;;;;;5097213;28;20470;-77
2021/03/11 07:49:18;;;;;;;33.30;4.95;;;11.00;99.90;;;;;;5090242;28;20065;-77
2021/03/11 07:51:44;;;;;;;29.65;4.63;;;11.00;99.90;;;;;;5091329;28;20035;-76
2021/03/11 07:54:10;;;;;;;33.22;4.38;;;11.00;99.90;;;;;;5091314;28;20028;-77
2021/03/11 07:56:36;;;;;;;28.27;4.68;;;11.00;99.90;;;;;;5091171;28;20484;-78
2021/03/11 07:59:04;;;;;;;32.97;4.18;;;11.10;99.90;;;;;;5091191;28;20032;-76
2021/03/11 08:01:33;;;;;;;28.60;4.78;;;11.10;99.90;;;;;;5097303;28;20032;-76
2021/03/11 08:04:00;;;;;;;23.17;4.18;;;11.10;99.90;;;;;;5093724;28;20510;-77
2021/03/11 08:06:26;;;;;;;21.35;5.05;;;11.10;99.90;;;;;;5094763;28;20110;-77
2021/03/11 08:08:52;;;;;;;27.13;4.47;;;11.20;99.90;;;;;;5098475;28;20024;-75
2021/03/11 08:11:32;;;;;;;22.65;4.45;;;11.20;99.90;;;;;;5103364;28;20364;-76
2021/03/11 08:14:19;;;;;;;30.45;4.72;;;11.20;99.90;;;;;;5098112;28;20028;-76
2021/03/11 08:16:45;;;;;;;19.55;3.53;;;11.30;99.90;;;;;;5102699;28;20023;-76
2021/03/11 08:19:37;;;;;;;24.10;4.53;;;11.30;99.90;;;;;;5098152;28;20020;-76
2021/03/11 08:22:03;;;;;;;32.40;6.05;;;11.40;99.90;;;;;;5098073;28;20090;-76
2021/03/11 08:24:48;;;;;;;20.30;3.95;;;11.40;99.90;;;;;;5102329;28;20595;-76
2021/03/11 08:27:28;;;;;;;28.20;4.72;;;11.40;99.90;;;;;;5098862;28;20020;-75
2021/03/11 08:29:58;;;;;;;25.75;4.25;;;11.40;99.90;;;;;;5099564;28;20028;-76
2021/03/11 08:32:49;;;;;;;41.05;5.45;;;11.40;99.90;;;;;;5103580;27;20051;-76
2021/03/11 08:35:27;;;;;;;26.33;6.20;;;11.40;99.90;;;;;;5105679;28;20015;-76
2021/03/11 08:37:53;;;;;;;44.55;7.22;;;11.50;99.90;;;;;;5097211;28;20508;-77
2021/03/11 08:40:39;;;;;;;40.42;6.88;;;11.50;99.90;;;;;;5101287;28;20027;-75
2021/03/11 08:43:05;;;;;;;34.63;5.50;;;11.40;99.90;;;;;;5108882;28;20031;-75
2021/03/11 08:45:37;;;;;;;31.55;4.82;;;11.30;99.90;;;;;;5110373;27;20123;-75
2021/03/11 08:48:17;;;;;;;37.05;5.43;;;11.40;99.90;;;;;;5104747;28;20492;-76
2021/03/11 08:50:45;;;;;;;26.65;4.07;;;11.40;99.90;;;;;;5105043;28;20027;-75
2021/03/11 08:53:11;;;;;;;33.22;5.07;;;11.50;99.90;;;;;;5104679;28;20028;-75
2021/03/11 08:55:38;;;;;;;31.30;4.68;;;11.50;99.90;;;;;;5108073;28;20028;-72
2021/03/11 08:58:23;;;;;;;37.80;6.32;;;11.60;99.90;;;;;;5105844;28;20028;-74
2021/03/11 09:01:02;;;;;;;34.65;5.50;;;11.70;99.90;;;;;;5105303;28;20378;-77
2021/03/11 09:03:46;;;;;;;26.38;4.45;;;11.70;99.90;;;;;;5106632;28;20026;-74
2021/03/11 09:06:14;;;;;;;24.98;4.22;;;11.70;99.90;;;;;;5105878;28;20032;-75
2021/03/11 09:08:47;;;;;;;29.48;6.45;;;11.70;99.90;;;;;;5115277;27;20023;-74
2021/03/11 09:11:15;;;;;;;32.35;5.47;;;11.70;99.90;;;;;;5115562;28;20027;-75
2021/03/11 09:13:42;;;;;;;31.27;4.82;;;11.70;99.90;;;;;;5105106;27;20026;-75
2021/03/11 09:16:08;;;;;;;40.33;6.05;;;11.70;99.90;;;;;;5097261;28;20050;-75
2021/03/11 09:18:37;;;;;;;42.30;7.13;;;11.70;99.90;;;;;;5110495;27;20810;-74
2021/03/11 09:21:06;;;;;;;37.15;5.60;;;11.70;99.90;;;;;;5103653;28;20067;-73
2021/03/11 09:23:33;;;;;;;33.88;5.38;;;11.70;99.90;;;;;;5103480;28;20032;-74
2021/03/11 09:25:59;;;;;;;29.48;5.43;;;11.70;99.90;;;;;;5098920;28;20051;-75
2021/03/11 09:28:25;;;;;;;33.08;5.40;;;11.70;99.90;;;;;;5111356;28;20096;-74
2021/03/11 09:30:52;;;;;;;33.78;5.43;;;11.60;99.90;;;;;;5099770;28;20054;-76
2021/03/11 09:33:18;;;;;;;37.38;4.85;;;11.60;99.90;;;;;;5094129;28;20039;-75
2021/03/11 09:35:44;;;;;;;29.92;5.88;;;11.60;99.90;;;;;;5102803;28;20042;-75
2021/03/11 09:38:14;;;;;;;45.63;6.32;;;11.60;99.90;;;;;;5101768;28;20123;-74
2021/03/11 09:40:45;;;;;;;40.17;5.80;;;11.60;99.90;;;;;;5102944;28;20034;-76
2021/03/11 09:43:18;;;;;;;44.65;5.05;;;11.70;99.90;;;;;;5103239;28;20514;-75
2021/03/11 09:45:52;;;;;;;33.90;3.83;;;11.80;99.90;;;;;;5097425;28;20507;-75
2021/03/11 09:48:23;;;;;;;23.05;3.72;;;11.90;99.90;;;;;;5092426;28;20468;-75
2021/03/11 09:50:50;;;;;;;28.90;5.60;;;11.90;99.90;;;;;;5094255;28;20020;-75
2021/03/11 09:53:17;;;;;;;33.03;5.75;;;11.80;99.90;;;;;;5094383;28;20097;-75
2021/03/11 09:55:42;;;;;;;23.48;5.20;;;11.80;99.90;;;;;;5094229;28;20410;-75
2021/03/11 09:58:14;;;;;;;38.85;6.65;;;11.80;99.90;;;;;;5108309;28;20375;-74
2021/03/11 10:00:40;;;;;;;23.55;4.95;;;11.80;99.90;;;;;;5094017;28;20016;-74
2021/03/11 10:03:18;;;;;;;24.10;5.22;;;11.80;99.90;;;;;;5094311;28;20055;-77
2021/03/11 10:05:45;;;;;;;32.28;5.38;;;11.90;99.90;;;;;;5105474;27;20024;-75
2021/03/11 10:08:37;;;;;;;25.65;4.60;;;11.90;99.90;;;;;;5094077;28;20024;-74
2021/03/11 10:11:05;;;;;;;31.88;5.88;;;11.90;99.90;;;;;;5094089;28;20188;-75
2021/03/11 10:13:51;;;;;;;38.20;6.03;;;12.30;99.90;;;;;;5094547;28;20034;-75
2021/03/11 10:16:19;;;;;;;38.35;5.20;;;12.00;99.90;;;;;;5094715;28;20376;-75
2021/03/11 10:19:04;;;;;;;26.63;4.38;;;11.90;99.90;;;;;;5098191;28;20028;-75
2021/03/11 10:21:31;;;;;;;23.90;4.85;;;12.00;99.90;;;;;;5110965;28;20081;-73
2021/03/11 10:23:56;;;;;;;44.63;6.43;;;12.00;99.90;;;;;;5093940;28;20039;-74
2021/03/11 10:26:30;;;;;;;21.55;4.63;;;12.00;99.90;;;;;;5094156;28;20020;-76
2021/03/11 10:29:19;;;;;;;30.70;5.45;;;12.00;99.90;;;;;;5093697;28;20067;-74
2021/03/11 10:31:46;;;;;;;35.13;5.55;;;12.00;99.90;;;;;;5082468;28;20055;-75
2021/03/11 10:34:14;;;;;;;26.70;6.38;;;12.00;99.90;;;;;;5104393;28;20028;-74
2021/03/11 10:36:53;;;;;;;36.17;6.13;;;12.00;99.90;;;;;;5100210;28;20055;-75
2021/03/11 10:39:19;;;;;;;41.63;6.32;;;12.00;99.90;;;;;;5105458;28;20375;-74
2021/03/11 10:42:06;;;;;;;29.63;4.72;;;11.90;99.90;;;;;;5099922;28;20483;-75
2021/03/11 10:44:39;;;;;;;31.02;5.55;;;11.90;99.90;;;;;;5101205;28;20036;-74
2021/03/11 10:47:13;;;;;;;33.75;5.65;;;11.90;99.90;;;;;;5110228;28;20035;-75
2021/03/11 10:49:43;;;;;;;32.58;4.68;;;11.80;99.90;;;;;;5105973;28;20031;-74
2021/03/11 10:52:13;;;;;;;35.65;5.03;;;11.80;99.90;;;;;;5105903;28;20282;-75
2021/03/11 10:54:42;;;;;;;39.10;5.10;;;11.80;99.90;;;;;;5099841;28;20027;-74
2021/03/11 10:57:08;;;;;;;29.27;3.72;;;11.80;99.90;;;;;;5096337;28;20024;-73
2021/03/11 11:00:08;;;;;;;28.42;5.10;;;11.80;99.90;;;;;;5095735;28;20024;-73
2021/03/11 11:02:34;;;;;;;26.00;5.32;;;11.80;99.90;;;;;;5069502;28;20062;-74
2021/03/11 11:04:59;;;;;;;23.60;4.72;;;11.90;99.90;;;;;;5100188;28;20136;-75
2021/03/11 11:07:25;;;;;;;42.83;5.28;;;11.90;99.90;;;;;;5101762;28;20494;-76
2021/03/11 11:09:52;;;;;;;32.75;5.40;;;11.90;99.90;;;;;;5101905;28;20035;-75
2021/03/11 11:12:19;;;;;;;31.33;5.78;;;11.90;99.90;;;;;;5101857;28;20035;-74
2021/03/11 11:14:47;;;;;;;24.98;4.68;;;12.00;99.90;;;;;;5101839;28;20056;-75
2021/03/11 11:17:14;;;;;;;28.10;5.90;;;12.10;99.90;;;;;;5097654;28;20068;-74
2021/03/11 11:19:40;;;;;;;35.78;5.13;;;12.10;99.90;;;;;;5096268;28;20028;-75
2021/03/11 11:22:08;;;;;;;31.40;4.82;;;12.10;99.90;;;;;;5105169;28;20016;-75
2021/03/11 11:24:35;;;;;;;39.15;6.00;;;12.10;99.90;;;;;;5102296;28;20123;-74
2021/03/11 11:27:01;;;;;;;45.42;7.47;;;12.10;99.90;;;;;;5096654;28;20028;-75
2021/03/11 11:29:27;;;;;;;41.88;6.82;;;12.20;99.90;;;;;;5101815;28;20028;-75
2021/03/11 11:31:54;;;;;;;36.90;6.75;;;12.20;99.90;;;;;;5109717;28;20477;-74
2021/03/11 11:34:19;;;;;;;34.08;6.38;;;12.10;99.90;;;;;;5100436;28;20062;-76
2021/03/11 11:36:46;;;;;;;42.42;5.88;;;12.20;99.90;;;;;;5097673;28;20044;-74
2021/03/11 11:39:12;;;;;;;35.97;5.15;;;12.20;99.90;;;;;;5110833;28;20037;-73
2021/03/11 11:41:38;;;;;;;36.10;6.35;;;12.20;99.90;;;;;;5111896;28;20099;-74
2021/03/11 11:44:05;;;;;;;35.80;5.15;;;12.20;99.90;;;;;;5109548;28;20393;-74
2021/03/11 11:46:31;;;;;;;31.55;4.85;;;12.20;99.90;;;;;;5098099;28;20019;-78
2021/03/11 11:48:56;;;;;;;30.35;5.90;;;12.10;99.90;;;;;;5093219;28;20478;-74
2021/03/11 11:51:22;;;;;;;36.35;5.78;;;12.20;99.90;;;;;;5096044;28;20016;-75
2021/03/11 11:53:48;;;;;;;24.33;5.47;;;12.20;99.90;;;;;;5097070;28;20429;-77
2021/03/11 11:56:13;;;;;;;31.55;5.05;;;12.10;99.90;;;;;;5096695;28;20058;-77
2021/03/11 11:58:44;;;;;;;38.08;5.45;;;12.20;99.90;;;;;;5095768;28;20028;-76
2021/03/11 12:01:13;;;;;;;30.02;4.55;;;12.10;99.90;;;;;;5098862;28;20070;-77
2021/03/11 12:03:39;;;;;;;28.50;4.38;;;12.20;99.90;;;;;;5107532;28;20024;-76
2021/03/11 12:06:05;;;;;;;29.65;5.28;;;12.20;99.90;;;;;;5100865;28;20069;-75
2021/03/11 12:08:30;;;;;;;28.88;5.40;;;12.20;99.90;;;;;;5092249;28;20093;-75
2021/03/11 12:10:56;;;;;;;36.30;5.35;;;12.30;99.90;;;;;;5091230;28;20020;-75
2021/03/11 12:13:22;;;;;;;33.80;5.32;;;12.30;99.90;;;;;;5092237;28;20047;-76
2021/03/11 12:15:50;;;;;;;36.10;5.25;;;12.30;99.90;;;;;;5092033;28;20023;-76
2021/03/11 12:18:16;;;;;;;33.20;5.80;;;12.30;99.90;;;;;;5091697;28;20535;-76
2021/03/11 12:20:41;;;;;;;29.73;6.13;;;12.30;99.90;;;;;;5092223;28;20146;-76
2021/03/11 12:23:07;;;;;;;32.10;5.78;;;12.30;99.90;;;;;;5091175;28;20067;-75
2021/03/11 12:25:34;;;;;;;22.17;4.65;;;12.40;99.90;;;;;;5109018;28;20032;-76
2021/03/11 12:28:03;;;;;;;31.35;5.38;;;12.40;99.90;;;;;;5112379;28;20027;-77
2021/03/11 12:30:30;;;;;;;32.90;6.00;;;12.40;99.90;;;;;;5112072;28;20059;-76
2021/03/11 12:32:56;;;;;;;35.25;5.28;;;12.50;99.90;;;;;;5112143;28;20027;-77
2021/03/11 12:35:22;;;;;;;22.25;5.47;;;12.60;99.90;;;;;;5112405;28;20057;-77
2021/03/11 12:37:49;;;;;;;19.75;4.60;;;12.70;99.90;;;;;;5111747;28;20035;-76
2021/03/11 12:40:15;;;;;;;32.08;4.30;;;12.80;99.90;;;;;;5112412;28;20027;-76
2021/03/11 12:42:46;;;;;;;40.08;6.03;;;12.80;99.90;;;;;;5112096;28;20024;-76
2021/03/11 12:45:13;;;;;;;30.02;5.93;;;12.70;99.90;;;;;;5111326;28;20432;-77
2021/03/11 12:47:38;;;;;;;28.92;4.22;;;12.80;99.90;;;;;;5112248;28;20053;-76